CZA weather

Chichen Itza International Airport
Chichen Itza, Yucatan, Mexico

Public forecast

Using degrees Celsius for public forecast. Weather courtesy of forecast.io.

METAR (pilot weather report)

Report is more than 2 hours old.

Retrieved 2017/12/15 20:42 UTC (5 hours ago):

MMCT 152042Z 09005KT 8SM BKN030 27/22 A2999 RMK 8/400 MSGTX MMMD

TAF (pilot weather forecast)

Forecast is more than 6 hours old.

Closest forecast is Licenciado Manuel Crescencio Rejon Int Airport, 70.3 nm (130.2 km) WNW. Retrieved 2017/12/15 18:21 UTC (8 hours ago):

TAF MMMD 151718Z 1518/1624 08008KT 6SM HZ SCT015 BKN070 TX29/1521Z TN19/1612Z BECMG1520/1521 03012KT FM160200 03010KT P6SM SCT020 BKN080 BECMG 1605/1606 07010KT FM161200 07008KT 6SM HZ BKN015 BKN070 FM161600 09008KT 6SM HZ BKN020 BKN080 FM162000 09015KT 6SM HZ BKN025CB BKN080 PROB40 1621/1624 4SM TSRA